Time;durP1;ratioP1;P1;durP2;ratioP2;P2;SDS_P1;SDS_P2;PMS_P1;PMS_P2;Temp;Humidity;BMP_temperature;BMP_pressure;BME280_temperature;BME280_humidity;BME280_pressure;Samples;Min_cycle;Max_cycle;Signal;HPM_P1;HPM_P2
2022/07/11 00:01:48;;;;;;;3.72;1.75;;;;;;;20.15;37.53;92778.66;4769564;30;20069;-75
2022/07/11 00:04:14;;;;;;;3.10;1.77;;;;;;;20.17;37.32;92776.44;4784605;29;20040;-75
2022/07/11 00:06:40;;;;;;;3.72;1.75;;;;;;;20.22;37.15;92771.97;4770388;30;20077;-75
2022/07/11 00:09:06;;;;;;;3.50;1.80;;;;;;;20.22;37.22;92782.59;4788883;30;20047;-75
2022/07/11 00:11:31;;;;;;;5.43;1.92;;;;;;;20.20;37.42;92768.88;4788916;30;20518;-75
2022/07/11 00:13:57;;;;;;;3.53;1.70;;;;;;;20.22;37.09;92770.13;4772098;30;20043;-75
2022/07/11 00:16:23;;;;;;;4.00;1.85;;;;;;;20.23;37.05;92762.91;4785896;29;20445;-75
2022/07/11 00:18:48;;;;;;;4.07;1.98;;;;;;;20.30;37.05;92765.75;4772968;30;20043;-75
2022/07/11 00:21:14;;;;;;;3.70;2.00;;;;;;;20.28;37.18;92760.00;4789273;30;20062;-75
2022/07/11 00:23:39;;;;;;;3.45;1.90;;;;;;;20.30;36.93;92765.75;4772421;30;20506;-75
2022/07/11 00:26:05;;;;;;;3.65;1.90;;;;;;;20.31;36.98;92765.41;4788378;29;20046;-75
2022/07/11 00:28:31;;;;;;;3.22;1.80;;;;;;;20.28;36.96;92754.69;4788748;30;20054;-75
2022/07/11 00:30:56;;;;;;;3.30;1.75;;;;;;;20.31;37.02;92759.31;4788686;30;20502;-75
2022/07/11 00:33:22;;;;;;;3.88;1.80;;;;;;;20.24;37.11;92751.16;4788661;30;20043;-75
2022/07/11 00:35:48;;;;;;;3.42;1.80;;;;;;;20.30;36.90;92763.09;4742226;30;20047;-75
2022/07/11 00:38:13;;;;;;;6.43;1.85;;;;;;;20.26;36.97;92754.25;4788136;30;20054;-75
2022/07/11 00:40:39;;;;;;;3.97;1.90;;;;;;;20.20;37.22;92759.03;4757675;30;20043;-75
2022/07/11 00:43:06;;;;;;;3.38;2.00;;;;;;;20.24;36.87;92759.13;4772366;30;20051;-75
2022/07/11 00:45:32;;;;;;;3.20;1.70;;;;;;;20.18;37.20;92753.28;4771349;30;20039;-75
2022/07/11 00:47:58;;;;;;;4.13;1.90;;;;;;;20.18;37.26;92754.06;4772511;30;20116;-75
2022/07/11 00:50:25;;;;;;;3.70;1.90;;;;;;;20.16;37.08;92753.63;4788323;30;20076;-75
2022/07/11 00:52:56;;;;;;;3.72;1.90;;;;;;;20.16;37.01;92758.94;4788307;30;20035;-75
2022/07/11 00:55:22;;;;;;;3.90;1.90;;;;;;;20.12;37.05;92760.72;4787792;29;20134;-75
2022/07/11 00:57:51;;;;;;;3.88;1.77;;;;;;;20.11;36.94;92756.53;4757343;30;20360;-75
2022/07/11 01:00:17;;;;;;;3.85;1.90;;;;;;;20.12;37.04;92759.94;4788239;30;20113;-75
2022/07/11 01:02:43;;;;;;;3.38;1.90;;;;;;;20.07;37.30;92755.66;4772377;30;20402;-75
2022/07/11 01:05:08;;;;;;;3.38;1.80;;;;;;;20.05;37.45;92757.88;4770961;30;20038;-74
2022/07/11 01:07:34;;;;;;;3.20;1.85;;;;;;;20.03;37.39;92759.31;4786360;30;20039;-74
2022/07/11 01:10:00;;;;;;;4.53;1.90;;;;;;;19.99;39.21;92769.06;4786313;30;20142;-75
2022/07/11 01:12:26;;;;;;;4.30;1.88;;;;;;;19.95;39.42;92766.34;4772234;30;20047;-75
2022/07/11 01:14:52;;;;;;;3.58;1.80;;;;;;;19.82;39.41;92760.28;4788171;29;20047;-75
2022/07/11 01:17:18;;;;;;;3.65;1.83;;;;;;;19.87;38.22;92759.28;4785345;29;20051;-75
2022/07/11 01:19:44;;;;;;;4.22;2.10;;;;;;;19.81;38.40;92757.94;4783621;30;20073;-75
2022/07/11 01:22:13;;;;;;;3.45;1.80;;;;;;;19.72;39.20;92766.84;4788291;30;20074;-75
2022/07/11 01:24:39;;;;;;;4.07;1.92;;;;;;;19.64;39.44;92765.06;4771828;30;20433;-75
2022/07/11 01:27:07;;;;;;;3.28;1.80;;;;;;;19.55;39.63;92767.06;4771924;30;20043;-74
2022/07/11 01:29:32;;;;;;;4.78;1.92;;;;;;;19.46;39.88;92759.22;4756648;30;20422;-75
2022/07/11 01:31:58;;;;;;;3.10;1.90;;;;;;;19.39;39.47;92769.63;4768392;30;20047;-75
2022/07/11 01:34:23;;;;;;;3.30;1.70;;;;;;;19.31;39.86;92763.31;4769800;30;20040;-75
2022/07/11 01:36:50;;;;;;;3.63;2.03;;;;;;;19.24;40.64;92763.09;4769335;29;20059;-74
2022/07/11 01:39:16;;;;;;;3.35;1.88;;;;;;;19.18;40.75;92769.75;4770304;30;20371;-75
2022/07/11 01:41:41;;;;;;;4.65;2.00;;;;;;;19.13;41.29;92768.09;4787857;30;20051;-75
2022/07/11 01:44:07;;;;;;;3.15;1.70;;;;;;;19.09;41.44;92771.72;4787509;29;20043;-75
2022/07/11 01:46:32;;;;;;;3.30;1.90;;;;;;;19.02;42.33;92776.81;4787500;30;20485;-75
2022/07/11 01:48:58;;;;;;;3.28;1.88;;;;;;;18.92;42.80;92773.50;4787061;30;20096;-75
2022/07/11 01:51:24;;;;;;;5.13;1.90;;;;;;;18.84;43.60;92771.72;4786087;30;20051;-74
2022/07/11 01:53:50;;;;;;;3.20;1.88;;;;;;;18.78;43.76;92770.41;4785609;30;20046;-75
2022/07/11 01:56:16;;;;;;;5.45;2.00;;;;;;;18.71;43.87;92775.44;4787256;29;20047;-75
2022/07/11 01:58:42;;;;;;;5.82;2.03;;;;;;;18.60;44.00;92772.44;4786149;30;20057;-74
2022/07/11 02:01:07;;;;;;;4.95;2.00;;;;;;;18.50;44.81;92778.91;4786400;30;20100;-75
2022/07/11 02:03:33;;;;;;;3.40;1.77;;;;;;;18.43;44.71;92784.00;4755421;30;20466;-74
2022/07/11 02:05:58;;;;;;;3.50;1.90;;;;;;;18.35;44.79;92782.22;4787160;29;20478;-74
2022/07/11 02:08:24;;;;;;;4.38;1.98;;;;;;;18.29;45.04;92783.50;4770859;30;20071;-74
2022/07/11 02:10:51;;;;;;;5.82;1.80;;;;;;;18.20;45.22;92785.47;4785670;30;20108;-75
2022/07/11 02:13:20;;;;;;;5.22;2.00;;;;;;;18.10;44.66;92787.44;4786831;30;20039;-75
2022/07/11 02:15:46;;;;;;;4.07;1.80;;;;;;;18.05;45.33;92795.56;4786879;29;20035;-75
2022/07/11 02:18:13;;;;;;;3.00;1.70;;;;;;;18.00;45.29;92793.09;4769602;30;20058;-75
2022/07/11 02:20:41;;;;;;;3.42;2.00;;;;;;;17.93;45.50;92797.38;4786034;30;20341;-74
2022/07/11 02:23:07;;;;;;;4.78;1.95;;;;;;;17.87;45.32;92799.44;4770082;30;20042;-75
2022/07/11 02:25:35;;;;;;;4.30;1.90;;;;;;;17.81;45.66;92801.53;4786349;29;20416;-75
2022/07/11 02:28:01;;;;;;;3.70;1.90;;;;;;;17.78;45.61;92796.06;4786724;30;20039;-75
2022/07/11 02:30:27;;;;;;;5.43;1.80;;;;;;;17.74;45.85;92790.63;4770225;30;20047;-75
2022/07/11 02:32:53;;;;;;;3.75;2.00;;;;;;;17.73;46.61;92788.31;4785316;30;20046;-74
2022/07/11 02:35:19;;;;;;;4.65;2.00;;;;;;;17.68;46.69;92784.75;4786508;29;20522;-74
2022/07/11 02:37:45;;;;;;;5.07;1.90;;;;;;;17.62;46.98;92787.91;4770375;30;20097;-74
2022/07/11 02:40:11;;;;;;;3.58;1.85;;;;;;;17.56;47.43;92789.19;4770392;30;20410;-75
2022/07/11 02:42:37;;;;;;;3.20;1.70;;;;;;;17.52;47.91;92794.38;4768598;30;20048;-74
2022/07/11 02:45:04;;;;;;;2.55;1.60;;;;;;;17.45;48.58;92797.53;4770126;30;20036;-75
2022/07/11 02:47:29;;;;;;;7.15;1.98;;;;;;;17.38;48.28;92788.53;4786497;30;20435;-74
2022/07/11 02:49:55;;;;;;;3.38;1.98;;;;;;;17.36;47.99;92790.72;4755485;30;20113;-75
2022/07/11 02:52:21;;;;;;;3.55;1.85;;;;;;;17.38;48.00;92791.19;4754268;30;20088;-74
2022/07/11 02:54:46;;;;;;;5.28;1.80;;;;;;;17.36;48.05;92785.44;4770156;30;20047;-75
2022/07/11 02:57:12;;;;;;;3.33;1.90;;;;;;;17.31;48.50;92793.56;4786345;30;20035;-75
2022/07/11 02:59:37;;;;;;;3.25;1.85;;;;;;;17.25;48.62;92788.47;4786331;30;20031;-74
2022/07/11 03:02:04;;;;;;;4.70;1.80;;;;;;;17.20;49.03;92788.66;4786113;30;20047;-74
2022/07/11 03:04:32;;;;;;;5.50;1.80;;;;;;;17.16;48.93;92786.97;4781528;30;20494;-75
2022/07/11 03:06:57;;;;;;;4.70;1.70;;;;;;;17.14;49.17;92786.50;4770231;30;20077;-75
2022/07/11 03:09:23;;;;;;;2.90;1.70;;;;;;;17.09;49.30;92784.81;4785980;30;20079;-75
2022/07/11 03:11:50;;;;;;;3.30;1.83;;;;;;;17.05;49.13;92787.31;4769585;30;20537;-74
2022/07/11 03:14:16;;;;;;;3.67;2.05;;;;;;;17.01;49.43;92786.38;4785662;29;20043;-75
2022/07/11 03:16:41;;;;;;;3.45;1.90;;;;;;;16.98;49.13;92792.31;4786095;30;20058;-74
2022/07/11 03:19:07;;;;;;;5.32;2.55;;;;;;;16.97;49.29;92788.09;4769775;30;20043;-74
2022/07/11 03:21:32;;;;;;;3.47;1.80;;;;;;;16.94;49.87;92795.91;4769891;30;20483;-75
2022/07/11 03:23:58;;;;;;;2.85;1.70;;;;;;;16.91;49.84;92793.88;4785151;30;20054;-74
2022/07/11 03:26:23;;;;;;;4.65;1.90;;;;;;;16.87;50.50;92796.41;4785878;29;20053;-75
2022/07/11 03:28:49;;;;;;;4.18;1.90;;;;;;;16.83;50.24;92798.91;4786752;30;20043;-74
2022/07/11 03:31:14;;;;;;;3.90;1.95;;;;;;;16.81;50.54;92797.66;4770161;30;20032;-74
2022/07/11 03:33:40;;;;;;;4.78;2.00;;;;;;;16.76;50.61;92795.94;4768732;30;20130;-74
2022/07/11 03:36:06;;;;;;;3.53;1.70;;;;;;;16.74;50.50;92795.50;4769743;30;20043;-74
2022/07/11 03:38:31;;;;;;;3.25;1.83;;;;;;;16.73;50.73;92801.09;4785870;30;20067;-74
2022/07/11 03:40:57;;;;;;;5.25;1.95;;;;;;;16.72;51.14;92802.19;4785906;29;20104;-74
2022/07/11 03:43:23;;;;;;;2.90;1.75;;;;;;;16.69;50.79;92800.94;4789504;30;20043;-74
2022/07/11 03:45:49;;;;;;;3.38;1.80;;;;;;;16.68;50.67;92799.38;4788431;29;20047;-74
2022/07/11 03:48:14;;;;;;;3.20;1.80;;;;;;;16.67;50.51;92803.13;4789461;30;20051;-74
2022/07/11 03:50:40;;;;;;;3.10;1.90;;;;;;;16.68;50.77;92804.66;4788721;30;20031;-74
2022/07/11 03:53:05;;;;;;;2.90;1.80;;;;;;;16.64;51.26;92815.13;4789464;30;20083;-74
2022/07/11 03:55:32;;;;;;;3.03;1.65;;;;;;;16.62;51.04;92814.66;4788511;29;20127;-74
2022/07/11 03:57:58;;;;;;;3.58;1.92;;;;;;;16.61;51.00;92818.38;4789380;30;20075;-75
2022/07/11 04:00:23;;;;;;;4.35;2.00;;;;;;;16.60;51.62;92813.41;4789348;30;20128;-74
2022/07/11 04:02:50;;;;;;;3.00;1.70;;;;;;;16.59;51.44;92819.78;4788540;30;20046;-74
2022/07/11 04:05:15;;;;;;;4.30;1.98;;;;;;;16.58;51.81;92826.16;4772176;30;20043;-74
2022/07/11 04:07:42;;;;;;;4.50;1.98;;;;;;;16.56;51.91;92826.47;4789073;30;20449;-75
2022/07/11 04:10:08;;;;;;;3.25;1.90;;;;;;;16.57;51.80;92816.66;4772977;30;20055;-74
2022/07/11 04:12:34;;;;;;;3.97;1.85;;;;;;;16.59;51.69;92820.56;4788406;30;20047;-74
2022/07/11 04:15:00;;;;;;;3.60;1.90;;;;;;;16.60;52.06;92824.00;4765195;30;20051;-74
2022/07/11 04:17:26;;;;;;;3.63;2.00;;;;;;;16.63;52.01;92826.00;4768151;30;20063;-74
2022/07/11 04:19:53;;;;;;;4.57;1.80;;;;;;;16.66;52.30;92833.28;4744741;30;20097;-74
2022/07/11 04:22:19;;;;;;;3.72;1.90;;;;;;;16.69;52.08;92835.31;4770866;30;20153;-75
2022/07/11 04:24:44;;;;;;;3.67;1.90;;;;;;;16.74;52.57;92823.78;4774974;29;20118;-74
2022/07/11 04:27:10;;;;;;;5.97;1.90;;;;;;;16.75;52.92;92836.72;4787345;30;20035;-76
2022/07/11 04:29:35;;;;;;;3.70;1.92;;;;;;;16.77;52.44;92836.38;4790750;30;20118;-76
2022/07/11 04:32:01;;;;;;;2.72;1.65;;;;;;;16.77;52.86;92837.13;4771818;30;20070;-76
2022/07/11 04:34:26;;;;;;;2.55;1.60;;;;;;;16.81;52.74;92834.69;4771772;29;20120;-76
2022/07/11 04:36:52;;;;;;;3.47;1.88;;;;;;;16.77;54.21;92842.44;4772041;30;20065;-75
2022/07/11 04:39:18;;;;;;;3.45;1.73;;;;;;;16.81;54.34;92840.75;4769532;30;20048;-76
2022/07/11 04:41:43;;;;;;;4.78;2.00;;;;;;;16.83;54.12;92843.06;4771891;30;20043;-76
2022/07/11 04:44:09;;;;;;;3.75;2.10;;;;;;;16.83;54.68;92843.84;4787501;29;20510;-75
2022/07/11 04:46:35;;;;;;;3.72;2.00;;;;;;;16.82;54.76;92852.88;4785617;30;20043;-76
2022/07/11 04:49:00;;;;;;;3.15;1.98;;;;;;;16.85;54.58;92854.88;4786483;30;20043;-77
2022/07/11 04:51:26;;;;;;;3.75;2.10;;;;;;;16.89;54.80;92857.69;4784716;30;20126;-77
2022/07/11 04:53:52;;;;;;;3.58;1.90;;;;;;;16.94;55.38;92848.81;4790488;29;20058;-77
2022/07/11 04:56:17;;;;;;;3.60;1.95;;;;;;;16.99;54.59;92851.28;4790172;29;20032;-77
2022/07/11 04:58:43;;;;;;;3.38;2.00;;;;;;;17.04;55.06;92853.72;4774276;30;20619;-76
2022/07/11 05:01:09;;;;;;;3.40;1.98;;;;;;;17.10;54.70;92862.28;4773518;30;20054;-77
2022/07/11 05:03:36;;;;;;;5.72;2.00;;;;;;;17.16;54.17;92866.31;4759270;30;20062;-77
2022/07/11 05:06:02;;;;;;;3.42;2.00;;;;;;;17.23;53.86;92864.72;4758908;30;20042;-77
2022/07/11 05:08:29;;;;;;;3.40;1.90;;;;;;;17.30;53.45;92868.75;4790319;30;20054;-77
2022/07/11 05:10:55;;;;;;;3.42;2.00;;;;;;;17.36;54.19;92864.81;4773914;30;20067;-77
2022/07/11 05:13:21;;;;;;;3.38;1.83;;;;;;;17.39;54.42;92861.53;4790349;30;20400;-77
2022/07/11 05:15:46;;;;;;;4.45;2.20;;;;;;;17.44;54.87;92867.41;4790288;29;20073;-77
2022/07/11 05:18:12;;;;;;;3.15;1.92;;;;;;;17.51;55.26;92869.56;4773601;30;20256;-77
2022/07/11 05:20:38;;;;;;;3.42;2.10;;;;;;;17.59;55.25;92860.03;4790085;30;20099;-77
2022/07/11 05:23:03;;;;;;;4.65;1.92;;;;;;;17.65;55.98;92866.69;4790037;30;20039;-77
2022/07/11 05:25:29;;;;;;;3.47;2.00;;;;;;;17.76;54.69;92869.75;4774009;30;20468;-77
2022/07/11 05:27:54;;;;;;;3.03;2.00;;;;;;;17.82;54.68;92866.59;4759147;30;20040;-77
2022/07/11 05:30:20;;;;;;;2.90;1.88;;;;;;;17.91;54.69;92877.16;4758929;30;20089;-77
2022/07/11 05:32:46;;;;;;;4.20;2.00;;;;;;;17.97;54.89;92873.22;4773850;30;20054;-77
2022/07/11 05:35:11;;;;;;;4.00;2.15;;;;;;;18.07;54.74;92880.78;4773863;30;20101;-77
2022/07/11 05:37:37;;;;;;;3.15;1.83;;;;;;;18.18;54.82;92877.75;4790575;30;20043;-77
2022/07/11 05:40:03;;;;;;;3.33;2.00;;;;;;;18.32;53.98;92886.19;4773592;30;20032;-77
2022/07/11 05:42:29;;;;;;;4.38;2.00;;;;;;;18.43;54.44;92890.00;4786596;30;20490;-77
2022/07/11 05:44:54;;;;;;;4.20;1.90;;;;;;;18.54;54.54;92889.63;4779643;30;20043;-77
2022/07/11 05:47:20;;;;;;;6.22;2.00;;;;;;;18.61;54.61;92892.53;4771212;30;20116;-77
2022/07/11 05:49:46;;;;;;;4.78;2.00;;;;;;;18.67;54.61;92889.34;4784854;30;20047;-77
2022/07/11 05:52:11;;;;;;;5.07;2.28;;;;;;;18.86;54.70;92885.44;4789657;30;20360;-78
2022/07/11 05:54:37;;;;;;;5.07;1.90;;;;;;;19.47;53.84;92892.72;4774720;30;20124;-78
2022/07/11 05:57:03;;;;;;;6.28;2.05;;;;;;;20.29;51.97;92892.56;4791775;30;20031;-77
2022/07/11 05:59:29;;;;;;;9.85;2.25;;;;;;;21.15;51.14;92891.47;4776173;30;20051;-78
2022/07/11 06:01:55;;;;;;;5.15;1.85;;;;;;;21.95;47.59;92895.69;4790324;30;20085;-78
2022/07/11 06:04:21;;;;;;;4.15;1.83;;;;;;;22.46;45.43;92892.19;4792094;29;20077;-78
2022/07/11 06:06:46;;;;;;;4.32;1.70;;;;;;;22.89;44.85;92886.91;4793039;30;20395;-78
2022/07/11 06:09:12;;;;;;;5.93;2.13;;;;;;;23.29;43.84;92891.88;4789153;30;20062;-79
2022/07/11 06:11:38;;;;;;;4.00;2.25;;;;;;;23.11;43.34;92894.22;4790481;29;20043;-78
2022/07/11 06:14:05;;;;;;;4.55;1.90;;;;;;;23.20;42.72;92891.31;4788801;30;20561;-78
2022/07/11 06:16:31;;;;;;;4.05;1.83;;;;;;;23.05;41.04;92888.38;4775581;30;20075;-78
2022/07/11 06:19:16;;;;;;;5.28;1.90;;;;;;;23.67;43.19;92892.88;4778044;30;20058;-78
2022/07/11 06:21:41;;;;;;;7.57;2.70;;;;;;;23.43;43.43;92891.31;4774711;30;20043;-78
2022/07/11 06:24:07;;;;;;;8.70;2.30;;;;;;;23.77;42.62;92896.84;4788770;29;20068;-79
2022/07/11 06:26:32;;;;;;;8.52;2.13;;;;;;;24.04;41.47;92889.63;4794251;29;20046;-78
2022/07/11 06:28:58;;;;;;;5.28;2.33;;;;;;;24.41;41.52;92899.66;4756218;30;20050;-78
2022/07/11 06:31:24;;;;;;;4.10;1.90;;;;;;;24.70;37.89;92893.56;4774934;30;20074;-79
2022/07/11 06:33:54;;;;;;;5.28;1.75;;;;;;;24.97;38.51;92896.16;4777099;30;20097;-78
2022/07/11 06:36:22;;;;;;;3.65;1.80;;;;;;;25.19;36.88;92905.22;4774815;30;20043;-78
2022/07/11 06:38:52;;;;;;;9.25;1.98;;;;;;;24.98;37.44;92892.34;4791770;30;20039;-79
2022/07/11 06:41:18;;;;;;;4.68;1.88;;;;;;;24.36;39.78;92894.63;4761974;30;20116;-79
2022/07/11 06:43:44;;;;;;;5.30;1.90;;;;;;;23.63;40.64;92895.47;4776575;30;20078;-78
2022/07/11 06:46:09;;;;;;;6.90;2.00;;;;;;;23.27;41.30;92896.78;4776715;30;20047;-78
2022/07/11 06:48:35;;;;;;;4.13;2.03;;;;;;;23.39;41.40;92896.59;4790261;30;20147;-78
2022/07/11 06:51:01;;;;;;;3.47;1.95;;;;;;;23.39;42.39;92890.50;4787559;30;20039;-78
2022/07/11 06:53:26;;;;;;;4.20;1.90;;;;;;;23.96;40.92;92893.31;4792054;29;20072;-78
2022/07/11 06:55:52;;;;;;;7.30;1.80;;;;;;;24.34;39.98;92899.56;4790935;29;20035;-77
2022/07/11 06:58:33;;;;;;;6.78;1.95;;;;;;;24.65;38.97;92904.59;4785190;30;20058;-77
2022/07/11 07:01:00;;;;;;;4.95;2.00;;;;;;;24.24;39.39;92901.75;4770193;30;20088;-77
2022/07/11 07:03:25;;;;;;;4.93;1.75;;;;;;;24.01;39.33;92901.81;4786763;30;20043;-77
2022/07/11 07:05:55;;;;;;;6.07;1.75;;;;;;;24.09;39.94;92898.13;4771542;30;20502;-76
2022/07/11 07:08:24;;;;;;;3.28;1.80;;;;;;;23.76;39.01;92898.00;4770375;30;20051;-77
2022/07/11 07:10:50;;;;;;;3.88;1.58;;;;;;;23.90;39.94;92907.00;4757199;30;20055;-77
2022/07/11 07:13:16;;;;;;;3.78;1.90;;;;;;;23.89;38.94;92910.81;4767823;30;20052;-77
2022/07/11 07:15:41;;;;;;;4.80;1.98;;;;;;;24.03;40.27;92909.47;4737411;30;20035;-77
2022/07/11 07:18:07;;;;;;;3.42;1.75;;;;;;;24.46;40.40;92910.06;4768886;30;20039;-78
2022/07/11 07:20:32;;;;;;;4.68;2.10;;;;;;;24.36;39.00;92900.75;4747057;30;20483;-77
2022/07/11 07:22:58;;;;;;;8.68;2.00;;;;;;;23.87;39.29;92907.72;4748038;30;20052;-77
2022/07/11 07:25:25;;;;;;;3.85;1.80;;;;;;;23.39;40.04;92906.53;4766770;30;20044;-77
2022/07/11 07:27:50;;;;;;;7.70;1.90;;;;;;;23.37;41.47;92906.91;4752414;30;20039;-77
2022/07/11 07:30:16;;;;;;;4.70;1.90;;;;;;;23.33;40.89;92902.59;4752808;30;20059;-77
2022/07/11 07:32:42;;;;;;;5.45;2.00;;;;;;;23.53;42.72;92908.66;4769842;30;20495;-77
2022/07/11 07:35:07;;;;;;;4.57;1.90;;;;;;;23.26;41.19;92912.03;4753524;30;20457;-77
2022/07/11 07:37:33;;;;;;;5.53;1.90;;;;;;;23.61;42.19;92915.66;4768467;30;20352;-77
2022/07/11 07:39:58;;;;;;;5.10;1.90;;;;;;;23.22;41.24;92910.44;4753445;30;20047;-77
2022/07/11 07:42:24;;;;;;;6.93;1.98;;;;;;;23.03;42.63;92913.91;4751072;30;20363;-77
2022/07/11 07:44:49;;;;;;;7.47;1.95;;;;;;;23.61;41.97;92921.00;4767667;30;20455;-77
2022/07/11 07:47:15;;;;;;;2.60;1.60;;;;;;;23.95;40.64;92915.84;4752059;30;20044;-77
2022/07/11 07:49:40;;;;;;;2.92;1.80;;;;;;;24.01;40.11;92912.50;4752760;30;20063;-77
2022/07/11 07:52:06;;;;;;;3.72;1.80;;;;;;;23.97;39.82;92917.03;4770124;30;20478;-78
2022/07/11 07:54:32;;;;;;;6.30;2.13;;;;;;;23.92;41.11;92911.22;4763235;30;20036;-77
2022/07/11 07:56:57;;;;;;;4.53;1.95;;;;;;;24.12;42.14;92912.66;4755841;30;20031;-77
2022/07/11 07:59:24;;;;;;;6.28;2.00;;;;;;;23.82;40.83;92910.72;4770835;30;20264;-77
2022/07/11 08:01:53;;;;;;;4.25;1.70;;;;;;;23.67;42.26;92908.91;4769337;30;20403;-77
2022/07/11 08:04:19;;;;;;;6.78;2.00;;;;;;;23.89;40.50;92915.38;4767666;30;20429;-77
2022/07/11 08:06:45;;;;;;;6.70;1.90;;;;;;;24.02;39.50;92908.69;4765227;30;20059;-77
2022/07/11 08:09:12;;;;;;;5.88;2.00;;;;;;;24.01;40.16;92901.03;4769192;30;20134;-77
2022/07/11 08:11:38;;;;;;;5.10;1.80;;;;;;;24.25;41.25;92905.97;4769920;30;20571;-77
2022/07/11 08:14:07;;;;;;;6.03;2.30;;;;;;;23.96;41.29;92912.03;4767302;30;20051;-77
2022/07/11 08:16:33;;;;;;;5.45;1.90;;;;;;;23.44;41.31;92898.19;4784731;30;20176;-76
2022/07/11 08:19:01;;;;;;;3.42;1.80;;;;;;;23.31;41.98;92902.97;4767862;30;20101;-77
2022/07/11 08:21:28;;;;;;;3.13;1.80;;;;;;;23.60;41.24;92908.78;4785160;30;20046;-76
2022/07/11 08:23:55;;;;;;;5.57;2.08;;;;;;;23.79;41.36;92911.41;4769032;30;20594;-76
2022/07/11 08:26:20;;;;;;;3.38;1.90;;;;;;;23.85;41.08;92906.53;4785280;29;20521;-76
2022/07/11 08:28:46;;;;;;;7.38;2.42;;;;;;;23.97;40.58;92900.97;4770783;30;20063;-77
2022/07/11 08:31:12;;;;;;;1.80;1.25;;;;;;;23.82;41.14;92908.03;4772630;30;20434;-77
2022/07/11 08:33:37;;;;;;;4.35;1.90;;;;;;;24.04;42.42;92905.66;4772626;30;20063;-76
2022/07/11 08:36:03;;;;;;;4.55;1.92;;;;;;;24.18;40.12;92911.19;4788327;29;20051;-77
2022/07/11 08:38:29;;;;;;;4.18;1.92;;;;;;;24.32;41.15;92910.66;4789086;30;20043;-77
2022/07/11 08:40:55;;;;;;;3.35;1.83;;;;;;;24.59;40.66;92898.03;4768721;30;20030;-77
2022/07/11 08:43:30;;;;;;;4.75;1.90;;;;;;;24.50;41.67;92906.31;4786577;30;20061;-77
2022/07/11 08:45:56;;;;;;;5.90;1.80;;;;;;;24.45;42.27;92913.84;4767990;30;20067;-76
2022/07/11 08:48:23;;;;;;;7.00;1.90;;;;;;;24.60;39.98;92909.50;4777200;30;20074;-77
2022/07/11 08:50:50;;;;;;;3.85;1.83;;;;;;;24.64;39.47;92911.09;4773030;30;20445;-77
2022/07/11 08:53:16;;;;;;;3.97;1.90;;;;;;;24.64;40.35;92904.97;4771780;30;20031;-77
2022/07/11 08:55:41;;;;;;;4.18;1.88;;;;;;;24.87;39.72;92902.16;4786697;29;20050;-77
2022/07/11 08:58:08;;;;;;;5.35;2.00;;;;;;;25.07;42.27;92900.84;4772594;30;20552;-77
2022/07/11 09:00:35;;;;;;;4.40;1.80;;;;;;;25.13;40.13;92898.63;4772496;30;20046;-76
2022/07/11 09:03:02;;;;;;;4.68;1.95;;;;;;;24.68;40.13;92898.53;4788611;30;20083;-77
2022/07/11 09:05:28;;;;;;;4.30;2.00;;;;;;;24.87;40.94;92899.50;4787518;29;20043;-77
2022/07/11 09:07:54;;;;;;;5.10;1.95;;;;;;;25.09;41.32;92893.22;4772101;30;20051;-78
2022/07/11 09:10:20;;;;;;;6.25;2.00;;;;;;;24.73;40.34;92902.78;4772453;30;20085;-77
2022/07/11 09:13:00;;;;;;;5.75;2.40;;;;;;;24.86;40.60;92895.28;4787992;30;20079;-79
2022/07/11 09:15:34;;;;;;;4.93;2.00;;;;;;;24.93;39.51;92895.34;4785705;29;20545;-77
2022/07/11 09:18:00;;;;;;;4.13;1.88;;;;;;;24.96;41.76;92888.50;4771028;30;20059;-77
2022/07/11 09:25:19;;;;;;;3.58;1.80;;;;;;;25.19;40.29;92891.06;4786546;30;20517;-77
2022/07/11 09:26:06;;;;;;;4.57;1.98;;;;;;;25.80;38.71;92894.25;4776653;30;20043;-76
2022/07/11 09:28:31;;;;;;;6.40;1.90;;;;;;;25.60;39.78;92888.34;4756769;30;20047;-77
2022/07/11 09:30:57;;;;;;;3.72;1.90;;;;;;;25.58;38.23;92896.00;4770543;30;20043;-76
2022/07/11 09:33:23;;;;;;;4.20;1.90;;;;;;;25.68;39.63;92888.03;4756911;30;20048;-77
2022/07/11 09:35:49;;;;;;;5.78;2.20;;;;;;;25.67;38.57;92891.09;4754637;30;20039;-77
2022/07/11 09:38:17;;;;;;;5.13;2.28;;;;;;;25.63;38.31;92882.25;4771848;30;20114;-77
2022/07/11 09:40:43;;;;;;;5.53;2.03;;;;;;;25.44;39.41;92885.91;4765431;30;20044;-76
2022/07/11 09:43:09;;;;;;;5.00;2.00;;;;;;;25.35;40.02;92894.25;4769274;30;20566;-77
2022/07/11 09:45:35;;;;;;;4.65;2.20;;;;;;;25.47;38.40;92885.97;4787479;29;20194;-77
2022/07/11 09:48:08;;;;;;;7.22;2.05;;;;;;;25.38;39.36;92880.16;4787574;30;20058;-77
2022/07/11 09:50:34;;;;;;;3.47;1.90;;;;;;;25.47;38.94;92885.19;4772128;30;20135;-77
2022/07/11 09:53:04;;;;;;;3.90;1.77;;;;;;;25.46;39.10;92889.00;4757800;30;20135;-77
2022/07/11 09:55:30;;;;;;;8.82;1.90;;;;;;;25.32;38.69;92885.06;4789048;29;20119;-77
2022/07/11 09:57:56;;;;;;;4.78;2.25;;;;;;;24.42;39.98;92887.84;4787883;30;20411;-77
2022/07/11 10:00:22;;;;;;;4.05;2.00;;;;;;;24.49;41.88;92887.94;4767466;30;20050;-76
2022/07/11 10:02:48;;;;;;;4.57;2.15;;;;;;;24.67;40.99;92888.16;4782946;30;20053;-77
2022/07/11 10:05:17;;;;;;;3.67;1.90;;;;;;;24.99;41.64;92891.19;4769991;30;20344;-76
2022/07/11 10:07:43;;;;;;;5.93;2.03;;;;;;;25.26;40.83;92885.75;4786859;30;20525;-77
2022/07/11 10:10:10;;;;;;;4.10;2.10;;;;;;;25.51;39.77;92883.28;4772210;30;20129;-77
2022/07/11 10:12:36;;;;;;;4.68;2.05;;;;;;;25.41;39.61;92879.41;4774312;30;20043;-78
2022/07/11 10:15:08;;;;;;;4.97;1.80;;;;;;;25.75;39.56;92887.31;4759463;30;20116;-76
2022/07/11 10:17:53;;;;;;;4.20;2.03;;;;;;;25.66;38.67;92879.59;4774859;30;20047;-77
2022/07/11 10:20:30;;;;;;;5.88;1.90;;;;;;;25.25;39.23;92881.56;4775100;30;20043;-78
2022/07/11 10:23:17;;;;;;;4.82;1.90;;;;;;;25.41;39.90;92886.66;4792187;29;20051;-81
2022/07/11 10:26:23;;;;;;;3.55;1.85;;;;;;;25.36;40.24;92877.06;4790952;29;20054;-78
2022/07/11 10:28:55;;;;;;;3.78;1.80;;;;;;;25.55;38.48;92881.41;4782821;30;20047;-78
2022/07/11 10:31:25;;;;;;;3.85;1.88;;;;;;;25.65;38.71;92880.00;4781231;30;20036;-78
2022/07/11 10:34:15;;;;;;;7.60;1.80;;;;;;;25.53;36.99;92879.13;4774854;30;20426;-78
2022/07/11 10:36:42;;;;;;;5.10;2.03;;;;;;;25.72;38.09;92880.81;4779568;30;20059;-77
2022/07/11 10:39:27;;;;;;;3.28;1.88;;;;;;;25.54;37.69;92874.53;4794525;29;20082;-78
2022/07/11 10:41:54;;;;;;;9.80;2.30;;;;;;;25.61;38.90;92879.94;4776295;30;20044;-77
2022/07/11 10:44:20;;;;;;;4.32;2.50;;;;;;;25.54;39.06;92869.19;4784581;29;20088;-78
2022/07/11 10:46:46;;;;;;;6.50;2.00;;;;;;;25.66;39.16;92876.16;4766661;30;20036;-78
2022/07/11 10:49:20;;;;;;;5.18;1.98;;;;;;;25.64;38.54;92876.50;4784993;30;20047;-77
2022/07/11 10:51:55;;;;;;;4.55;1.88;;;;;;;25.59;38.71;92866.16;4789567;29;21396;-77
2022/07/11 10:54:41;;;;;;;3.60;2.00;;;;;;;25.50;38.99;92871.81;4780195;29;20085;-77
2022/07/11 10:57:23;;;;;;;3.72;2.00;;;;;;;25.34;38.71;92865.94;4772702;30;20093;-78
2022/07/11 10:59:56;;;;;;;4.35;2.30;;;;;;;25.43;39.06;92853.00;4774770;30;20043;-78
2022/07/11 11:02:21;;;;;;;5.55;1.95;;;;;;;25.34;38.34;92863.25;4791830;30;20035;-78
2022/07/11 11:04:50;;;;;;;4.13;2.03;;;;;;;25.36;36.59;92865.56;4776093;30;20035;-78
2022/07/11 11:07:29;;;;;;;4.90;2.03;;;;;;;25.48;37.21;92865.28;4787917;30;20081;-78
2022/07/11 11:09:55;;;;;;;5.30;2.08;;;;;;;25.51;38.06;92873.38;4775827;30;20051;-78
2022/07/11 11:12:59;;;;;;;5.35;2.10;;;;;;;25.70;39.28;92869.69;4776128;30;20047;-78
2022/07/11 11:15:44;;;;;;;4.68;2.05;;;;;;;25.71;39.40;92865.06;4775347;30;20049;-78
2022/07/11 11:18:23;;;;;;;4.30;2.20;;;;;;;25.89;40.15;92874.03;4791397;30;20043;-78
2022/07/11 11:21:05;;;;;;;4.32;2.00;;;;;;;25.62;38.90;92864.63;4791148;30;20525;-78
2022/07/11 11:23:35;;;;;;;5.82;2.40;;;;;;;25.69;39.07;92859.31;4790194;30;20510;-78
2022/07/11 11:26:18;;;;;;;4.82;2.10;;;;;;;25.73;37.43;92860.88;4787678;29;20035;-78
2022/07/11 11:29:06;;;;;;;5.32;2.20;;;;;;;25.74;37.85;92856.31;4785863;30;20095;-77
2022/07/11 11:31:35;;;;;;;3.50;2.13;;;;;;;25.82;38.54;92852.53;4786037;30;20046;-77
2022/07/11 11:34:03;;;;;;;3.80;2.00;;;;;;;25.96;38.92;92855.34;4756021;30;20165;-78
2022/07/11 11:36:29;;;;;;;5.13;2.22;;;;;;;26.16;39.45;92849.69;4771067;30;20047;-78
2022/07/11 11:38:55;;;;;;;4.03;2.10;;;;;;;26.36;38.98;92852.88;4786544;30;20066;-78